Time;durP1;ratioP1;P1;durP2;ratioP2;P2;SDS_P1;SDS_P2;PMS_P1;PMS_P2;Temp;Humidity;BMP_temperature;BMP_pressure;BME280_temperature;BME280_humidity;BME280_pressure;Samples;Min_cycle;Max_cycle;Signal;HPM_P1;HPM_P2
2023/07/06 00:00:41;;;;;;;3.92;3.60;;;15.10;99.90;;;;;;4993990;28;20200;-80
2023/07/06 00:03:09;;;;;;;4.68;3.28;;;15.10;99.90;;;;;;5012994;28;21348;-81
2023/07/06 00:05:36;;;;;;;3.47;3.17;;;15.00;99.90;;;;;;5011504;28;20216;-80
2023/07/06 00:08:05;;;;;;;3.90;3.08;;;15.10;99.90;;;;;;5010540;28;20203;-81
2023/07/06 00:10:34;;;;;;;4.20;3.30;;;15.00;99.90;;;;;;4994649;28;20200;-80
2023/07/06 00:13:02;;;;;;;4.22;3.40;;;15.00;99.90;;;;;;5012842;28;20200;-80
2023/07/06 00:15:30;;;;;;;6.47;3.80;;;15.00;99.90;;;;;;5003123;28;20723;-81
2023/07/06 00:17:58;;;;;;;3.42;3.08;;;14.90;99.90;;;;;;4997281;28;20220;-81
2023/07/06 00:20:25;;;;;;;6.53;3.50;;;14.80;99.90;;;;;;4996229;28;20207;-81
2023/07/06 00:22:54;;;;;;;5.72;3.70;;;14.80;99.90;;;;;;5014150;28;20660;-80
2023/07/06 00:25:21;;;;;;;4.07;3.25;;;14.80;99.90;;;;;;5014999;28;20236;-81
2023/07/06 00:27:50;;;;;;;3.42;3.13;;;14.80;99.90;;;;;;5015288;28;20199;-81
2023/07/06 00:30:18;;;;;;;6.03;3.30;;;14.80;99.90;;;;;;4997801;28;20200;-81
2023/07/06 00:32:48;;;;;;;4.72;3.30;;;14.90;99.90;;;;;;5014746;28;20203;-81
2023/07/06 00:35:16;;;;;;;3.95;3.53;;;14.80;99.90;;;;;;5028659;28;20228;-81
2023/07/06 00:37:43;;;;;;;4.50;3.30;;;14.90;99.90;;;;;;5022373;28;20222;-81
2023/07/06 00:40:14;;;;;;;5.13;3.25;;;14.90;99.90;;;;;;4998080;28;20195;-81
2023/07/06 00:42:42;;;;;;;4.13;3.45;;;14.90;99.90;;;;;;5016334;28;20191;-81
2023/07/06 00:45:12;;;;;;;4.35;3.20;;;14.90;99.90;;;;;;5004936;28;20223;-81
2023/07/06 00:47:45;;;;;;;4.28;3.00;;;15.00;99.90;;;;;;5020396;28;20679;-81
2023/07/06 00:50:16;;;;;;;6.03;3.42;;;15.00;99.90;;;;;;5008766;28;20206;-81
2023/07/06 00:52:49;;;;;;;5.18;2.95;;;14.90;99.90;;;;;;5012710;28;20211;-81
2023/07/06 00:55:20;;;;;;;3.92;2.80;;;15.00;99.90;;;;;;4996606;28;20242;-81
2023/07/06 00:57:51;;;;;;;4.63;3.38;;;14.90;99.90;;;;;;5004626;28;20227;-81
2023/07/06 01:00:21;;;;;;;4.78;3.47;;;14.80;99.90;;;;;;5005357;28;20196;-81
2023/07/06 01:03:09;;;;;;;4.00;3.20;;;14.90;99.90;;;;;;5021080;28;20227;-81
2023/07/06 01:05:39;;;;;;;4.20;3.78;;;14.80;99.90;;;;;;5030883;28;20219;-81
2023/07/06 01:08:11;;;;;;;3.58;3.28;;;14.80;99.90;;;;;;5012888;28;20211;-81
2023/07/06 01:10:39;;;;;;;3.40;3.00;;;14.70;99.90;;;;;;5010641;28;20187;-81
2023/07/06 01:13:07;;;;;;;5.22;3.30;;;14.70;99.90;;;;;;5011632;28;20214;-81
2023/07/06 01:15:41;;;;;;;4.10;3.25;;;14.80;99.90;;;;;;5011712;28;20583;-81
2023/07/06 01:18:15;;;;;;;4.60;3.17;;;14.80;99.90;;;;;;5008392;28;20218;-81
2023/07/06 01:20:45;;;;;;;4.90;3.13;;;14.80;99.90;;;;;;4994831;28;20203;-80
2023/07/06 01:23:43;;;;;;;4.78;3.28;;;14.80;99.90;;;;;;5008926;28;20219;-81
2023/07/06 01:26:32;;;;;;;4.72;3.30;;;14.70;99.90;;;;;;4992563;28;20736;-81
2023/07/06 01:29:23;;;;;;;4.38;3.45;;;14.60;99.90;;;;;;4990686;28;20192;-81
2023/07/06 01:31:54;;;;;;;3.65;3.35;;;14.50;99.90;;;;;;5009841;28;20195;-81
2023/07/06 01:34:30;;;;;;;4.28;3.45;;;14.60;99.90;;;;;;4989835;28;20216;-81
2023/07/06 01:37:02;;;;;;;5.32;3.50;;;14.50;99.90;;;;;;4993834;28;20219;-81
2023/07/06 01:39:30;;;;;;;4.72;3.63;;;14.60;99.90;;;;;;5012028;28;20212;-81
2023/07/06 01:42:30;;;;;;;5.00;3.35;;;14.60;99.90;;;;;;5011458;28;20214;-81
2023/07/06 01:45:02;;;;;;;5.32;3.65;;;14.60;99.90;;;;;;4991599;28;20207;-80
2023/07/06 01:47:34;;;;;;;4.15;3.78;;;14.60;99.90;;;;;;5009971;28;20196;-81
2023/07/06 01:50:03;;;;;;;4.35;3.35;;;14.60;99.90;;;;;;5007933;28;20200;-81
2023/07/06 01:52:42;;;;;;;5.43;3.53;;;14.60;99.90;;;;;;5008996;28;20207;-81
2023/07/06 01:55:15;;;;;;;4.63;3.72;;;14.60;99.90;;;;;;5009783;28;20203;-81
2023/07/06 01:57:49;;;;;;;6.03;3.50;;;14.60;99.90;;;;;;5009060;28;20568;-81
2023/07/06 02:00:35;;;;;;;4.15;3.15;;;14.60;99.90;;;;;;4992541;28;20221;-81
2023/07/06 02:03:06;;;;;;;4.95;3.42;;;14.60;99.90;;;;;;4993150;28;20196;-81
2023/07/06 02:05:36;;;;;;;5.35;3.60;;;14.60;99.90;;;;;;4992916;28;20226;-81
2023/07/06 02:08:07;;;;;;;4.68;3.65;;;14.60;99.90;;;;;;5009474;28;20203;-81
2023/07/06 02:10:35;;;;;;;5.47;3.60;;;14.40;99.90;;;;;;5007504;28;20199;-81
2023/07/06 02:13:03;;;;;;;6.40;4.00;;;14.60;99.90;;;;;;5013928;28;20195;-81
2023/07/06 02:15:31;;;;;;;5.57;3.70;;;14.60;99.90;;;;;;4992455;28;20236;-81
2023/07/06 02:17:58;;;;;;;3.90;3.30;;;14.60;99.90;;;;;;4992829;28;20239;-81
2023/07/06 02:20:28;;;;;;;5.63;3.55;;;14.60;99.90;;;;;;5007935;28;20195;-81
2023/07/06 02:22:55;;;;;;;6.85;4.20;;;14.70;99.90;;;;;;5005580;28;20203;-81
2023/07/06 02:25:23;;;;;;;5.45;3.88;;;14.70;99.90;;;;;;5009453;28;20223;-81
2023/07/06 02:27:50;;;;;;;4.45;3.67;;;14.70;99.90;;;;;;4994027;28;20199;-81
2023/07/06 02:30:18;;;;;;;6.82;4.28;;;14.60;99.90;;;;;;5009796;28;20195;-81
2023/07/06 02:32:46;;;;;;;6.47;4.15;;;14.60;99.90;;;;;;5017214;28;20191;-81
2023/07/06 02:35:14;;;;;;;4.60;3.60;;;14.60;99.90;;;;;;5008957;28;20220;-81
2023/07/06 02:37:43;;;;;;;6.00;3.80;;;14.70;99.90;;;;;;5020987;28;20203;-81
2023/07/06 02:40:12;;;;;;;5.43;3.78;;;14.70;99.90;;;;;;5008368;28;20187;-82
2023/07/06 02:42:41;;;;;;;4.18;3.75;;;14.60;99.90;;;;;;5020684;28;20195;-81
2023/07/06 02:45:09;;;;;;;6.20;4.60;;;14.60;99.90;;;;;;5001090;28;20677;-81
2023/07/06 02:47:37;;;;;;;5.35;4.03;;;14.60;99.90;;;;;;5018141;28;20203;-81
2023/07/06 02:50:07;;;;;;;6.00;3.90;;;14.60;99.90;;;;;;5017537;28;20203;-81
2023/07/06 02:52:34;;;;;;;4.63;3.70;;;14.60;99.90;;;;;;5012373;28;20655;-81
2023/07/06 02:55:03;;;;;;;5.78;3.83;;;14.60;99.90;;;;;;5014730;28;20200;-81
2023/07/06 02:57:31;;;;;;;6.07;3.95;;;14.50;99.90;;;;;;5023208;28;20686;-81
2023/07/06 02:59:59;;;;;;;5.97;3.75;;;14.50;99.90;;;;;;5014852;28;20227;-81
2023/07/06 03:02:26;;;;;;;5.78;3.85;;;14.40;99.90;;;;;;5015329;28;20199;-81
2023/07/06 03:04:54;;;;;;;4.82;3.83;;;14.50;99.90;;;;;;5024378;28;20191;-81
2023/07/06 03:07:23;;;;;;;5.45;4.40;;;14.50;99.90;;;;;;5011208;28;20605;-80
2023/07/06 03:09:50;;;;;;;5.85;4.20;;;14.40;99.90;;;;;;5003025;28;20191;-81
2023/07/06 03:12:19;;;;;;;4.03;3.28;;;14.30;99.90;;;;;;5015640;28;20203;-81
2023/07/06 03:14:47;;;;;;;6.25;3.92;;;14.30;99.90;;;;;;5015787;28;20215;-81
2023/07/06 03:17:15;;;;;;;4.45;3.75;;;14.40;99.90;;;;;;5007608;28;20233;-81
2023/07/06 03:19:42;;;;;;;4.43;4.03;;;14.40;99.90;;;;;;5020260;28;20211;-81
2023/07/06 03:22:10;;;;;;;6.43;4.20;;;14.30;99.90;;;;;;5017802;28;20216;-80
2023/07/06 03:24:38;;;;;;;4.95;4.35;;;14.30;99.90;;;;;;5028671;28;20195;-81
2023/07/06 03:27:06;;;;;;;5.53;4.13;;;14.10;99.90;;;;;;5020419;28;20684;-80
2023/07/06 03:29:35;;;;;;;5.07;3.95;;;14.50;99.90;;;;;;5001373;28;20552;-80
2023/07/06 03:32:04;;;;;;;6.07;4.30;;;14.90;99.90;;;;;;5012349;28;20196;-81
2023/07/06 03:34:32;;;;;;;4.68;3.53;;;14.60;99.90;;;;;;5011928;28;20200;-81
2023/07/06 03:37:02;;;;;;;5.30;4.10;;;14.90;99.90;;;;;;5013248;28;20681;-81
2023/07/06 03:39:30;;;;;;;4.35;3.15;;;14.70;99.90;;;;;;4994230;28;20219;-81
2023/07/06 03:41:57;;;;;;;5.28;3.72;;;14.90;99.90;;;;;;5011816;28;20219;-80
2023/07/06 03:44:25;;;;;;;4.85;3.50;;;14.90;99.90;;;;;;4995253;28;21939;-81
2023/07/06 03:46:54;;;;;;;6.95;3.97;;;14.90;99.90;;;;;;4995090;28;20224;-81
2023/07/06 03:49:21;;;;;;;4.35;3.50;;;14.90;99.90;;;;;;5012691;28;20207;-80
2023/07/06 03:51:49;;;;;;;4.68;4.18;;;14.60;99.90;;;;;;5013842;28;20199;-81
2023/07/06 03:54:16;;;;;;;7.18;3.90;;;14.50;99.90;;;;;;5013129;28;20206;-80
2023/07/06 03:56:44;;;;;;;7.82;4.03;;;14.50;99.90;;;;;;4996464;28;20215;-80
2023/07/06 03:59:11;;;;;;;6.18;3.80;;;14.50;99.90;;;;;;4997226;28;20230;-81
2023/07/06 04:01:39;;;;;;;4.40;3.17;;;14.80;99.90;;;;;;4992807;28;20214;-81
2023/07/06 04:04:08;;;;;;;5.60;3.58;;;15.20;99.90;;;;;;5018411;28;20203;-81
2023/07/06 04:06:40;;;;;;;7.60;3.83;;;14.90;99.90;;;;;;5013294;28;20211;-81
2023/07/06 04:09:11;;;;;;;4.75;3.60;;;14.70;99.90;;;;;;5013298;28;20207;-81
2023/07/06 04:11:39;;;;;;;4.97;3.65;;;15.00;99.90;;;;;;5009544;28;20204;-81
2023/07/06 04:14:06;;;;;;;8.13;3.28;;;14.80;99.90;;;;;;5011326;28;20204;-81
2023/07/06 04:16:34;;;;;;;6.72;3.90;;;15.20;99.90;;;;;;4991781;28;20246;-81
2023/07/06 04:19:02;;;;;;;4.82;2.95;;;15.20;99.90;;;;;;5022612;28;20226;-81
2023/07/06 04:21:31;;;;;;;5.78;3.33;;;14.80;99.90;;;;;;5014917;28;20563;-80
2023/07/06 04:23:58;;;;;;;6.22;3.92;;;14.70;99.90;;;;;;5015588;28;20211;-80
2023/07/06 04:26:26;;;;;;;5.90;3.38;;;14.50;99.90;;;;;;4999694;28;20231;-80
2023/07/06 04:28:53;;;;;;;3.85;3.20;;;15.30;99.90;;;;;;4996565;28;20195;-80
2023/07/06 04:31:21;;;;;;;7.80;3.80;;;15.00;99.90;;;;;;4995251;28;20220;-80
2023/07/06 04:33:48;;;;;;;5.90;3.22;;;15.00;99.90;;;;;;5011432;28;20662;-80
2023/07/06 04:36:17;;;;;;;5.18;3.00;;;14.90;99.90;;;;;;5012889;28;20705;-81
2023/07/06 04:38:46;;;;;;;3.72;3.00;;;15.20;99.90;;;;;;5011805;28;20211;-81
2023/07/06 04:41:14;;;;;;;9.68;3.17;;;15.30;99.90;;;;;;5014210;28;20200;-80
2023/07/06 04:43:42;;;;;;;4.82;3.55;;;15.10;99.90;;;;;;5012097;28;20203;-80
2023/07/06 04:46:09;;;;;;;6.10;3.60;;;14.90;99.90;;;;;;4995930;28;20227;-80
2023/07/06 04:48:37;;;;;;;7.78;3.28;;;14.80;99.90;;;;;;5012157;28;20573;-81
2023/07/06 04:51:05;;;;;;;7.25;3.38;;;14.80;99.90;;;;;;4997136;28;20195;-80
2023/07/06 04:53:33;;;;;;;3.55;3.22;;;14.90;99.90;;;;;;5011627;28;20208;-81
2023/07/06 04:56:02;;;;;;;6.35;3.38;;;14.80;99.90;;;;;;5013197;28;20220;-80
2023/07/06 04:58:30;;;;;;;6.38;3.30;;;14.90;99.90;;;;;;5001464;28;20545;-81
2023/07/06 05:01:02;;;;;;;12.07;3.85;;;14.90;99.90;;;;;;5011623;28;20226;-80
2023/07/06 05:03:30;;;;;;;6.90;3.63;;;14.90;99.90;;;;;;5012792;28;20200;-81
2023/07/06 05:06:02;;;;;;;5.97;3.47;;;15.00;99.90;;;;;;5015573;28;20223;-80
2023/07/06 05:08:33;;;;;;;7.80;3.67;;;14.90;99.90;;;;;;4996578;28;20206;-80
2023/07/06 05:11:04;;;;;;;4.60;3.75;;;15.00;99.90;;;;;;4994463;28;20200;-80
2023/07/06 05:13:33;;;;;;;5.28;3.72;;;15.00;99.90;;;;;;5010105;28;20561;-82
2023/07/06 05:16:23;;;;;;;7.47;3.55;;;15.00;99.90;;;;;;5008937;28;20239;-80
2023/07/06 05:19:30;;;;;;;3.92;2.90;;;14.80;99.90;;;;;;4990987;28;21954;-84
2023/07/06 05:21:58;;;;;;;7.05;3.75;;;14.70;99.90;;;;;;4979486;28;20198;-81
2023/07/06 05:24:25;;;;;;;6.93;3.30;;;14.80;99.90;;;;;;5018325;28;20200;-81
2023/07/06 05:26:54;;;;;;;7.43;3.58;;;14.80;99.90;;;;;;5008574;28;20228;-81
2023/07/06 05:29:25;;;;;;;4.75;3.05;;;14.80;99.90;;;;;;4992705;28;20207;-81
2023/07/06 05:31:53;;;;;;;5.55;3.35;;;14.80;99.90;;;;;;5000518;28;20196;-79
2023/07/06 05:34:20;;;;;;;8.35;3.05;;;14.80;99.90;;;;;;5005889;28;20207;-79
2023/07/06 05:36:48;;;;;;;5.32;3.03;;;14.80;99.90;;;;;;5004000;28;20225;-80
2023/07/06 05:39:15;;;;;;;5.80;3.05;;;15.10;99.90;;;;;;5006405;28;20219;-79
2023/07/06 05:41:43;;;;;;;5.40;3.00;;;14.90;99.90;;;;;;5014774;28;20215;-79
2023/07/06 05:44:12;;;;;;;5.85;3.53;;;15.00;99.90;;;;;;5013738;28;20200;-80
2023/07/06 05:46:39;;;;;;;5.13;3.22;;;15.10;99.90;;;;;;5008863;28;20220;-79
2023/07/06 05:49:07;;;;;;;7.13;2.90;;;15.50;99.90;;;;;;5015698;28;20204;-79
2023/07/06 05:51:48;;;;;;;7.15;3.03;;;15.40;99.90;;;;;;5022233;28;20271;-82
2023/07/06 05:54:17;;;;;;;5.78;3.03;;;15.50;99.90;;;;;;5011957;28;20203;-79
2023/07/06 05:56:49;;;;;;;7.82;3.22;;;15.60;99.90;;;;;;4996034;28;20216;-79
2023/07/06 05:59:20;;;;;;;4.32;3.28;;;15.70;99.90;;;;;;5008587;28;20192;-80
2023/07/06 06:01:49;;;;;;;7.15;3.42;;;15.60;99.90;;;;;;5008237;28;20238;-78
2023/07/06 06:04:17;;;;;;;6.03;3.40;;;15.30;99.90;;;;;;5008758;28;20553;-80
2023/07/06 06:06:49;;;;;;;5.40;3.00;;;15.60;99.90;;;;;;5012498;28;20216;-79
2023/07/06 06:09:17;;;;;;;6.22;2.90;;;15.60;99.90;;;;;;5014148;28;20202;-79
2023/07/06 06:11:45;;;;;;;6.95;3.60;;;15.60;99.90;;;;;;5008162;28;20202;-80
2023/07/06 06:14:14;;;;;;;8.57;3.08;;;15.40;99.90;;;;;;5013517;28;20199;-80
2023/07/06 06:16:57;;;;;;;7.47;3.50;;;15.40;99.90;;;;;;5016822;28;20235;-80
2023/07/06 06:19:27;;;;;;;8.13;3.85;;;15.70;99.90;;;;;;5006078;28;20195;-77
2023/07/06 06:21:54;;;;;;;15.07;5.20;;;15.80;99.90;;;;;;5014546;28;20299;-79
2023/07/06 06:24:22;;;;;;;6.20;3.50;;;15.90;99.90;;;;;;5010842;28;20211;-80
2023/07/06 06:26:50;;;;;;;7.75;3.30;;;16.00;99.90;;;;;;5015708;28;20230;-79
2023/07/06 06:29:18;;;;;;;8.68;3.65;;;15.90;99.90;;;;;;5012490;28;20678;-80
2023/07/06 06:31:45;;;;;;;6.65;3.38;;;16.10;99.90;;;;;;5002572;28;20204;-77
2023/07/06 06:34:14;;;;;;;8.40;3.05;;;16.00;99.90;;;;;;5006277;28;20200;-77
2023/07/06 06:36:52;;;;;;;6.65;3.00;;;16.50;99.90;;;;;;5004946;28;20232;-77
2023/07/06 06:39:20;;;;;;;4.90;2.95;;;16.10;99.90;;;;;;5004152;28;20218;-78
2023/07/06 06:41:47;;;;;;;6.07;3.35;;;16.10;99.90;;;;;;5008354;28;20212;-77
2023/07/06 06:44:18;;;;;;;7.28;3.30;;;16.40;99.90;;;;;;5015561;28;20210;-77
2023/07/06 06:46:47;;;;;;;7.15;3.28;;;16.10;99.90;;;;;;5012328;28;20218;-76
2023/07/06 06:49:16;;;;;;;11.82;3.45;;;16.10;99.90;;;;;;5008206;28;20314;-77
2023/07/06 06:51:43;;;;;;;7.15;3.90;;;16.20;99.90;;;;;;5007572;28;20192;-79
2023/07/06 06:54:10;;;;;;;6.35;3.15;;;16.70;99.90;;;;;;4991528;28;20200;-79
2023/07/06 06:56:40;;;;;;;9.25;3.80;;;16.00;99.90;;;;;;4991782;28;20565;-80
2023/07/06 06:59:13;;;;;;;7.15;3.33;;;16.10;99.90;;;;;;5008364;28;20210;-79
2023/07/06 07:01:41;;;;;;;9.13;4.13;;;16.10;99.90;;;;;;4993830;28;20212;-79
2023/07/06 07:04:09;;;;;;;7.20;2.88;;;16.40;99.90;;;;;;5011050;28;20203;-80
2023/07/06 07:06:38;;;;;;;6.35;3.30;;;16.10;99.90;;;;;;5008766;28;20224;-79
2023/07/06 07:09:15;;;;;;;7.25;3.13;;;16.30;99.90;;;;;;4991975;28;20210;-79
2023/07/06 07:11:58;;;;;;;5.85;3.40;;;16.40;99.90;;;;;;4993568;28;20200;-80
2023/07/06 07:14:26;;;;;;;9.27;3.58;;;16.60;99.90;;;;;;5017068;28;20207;-80
2023/07/06 07:16:55;;;;;;;8.10;3.38;;;16.80;99.90;;;;;;4996708;28;20231;-80
2023/07/06 07:19:25;;;;;;;7.13;3.20;;;16.80;99.90;;;;;;5012886;28;20207;-81
2023/07/06 07:22:00;;;;;;;9.38;3.67;;;16.90;99.90;;;;;;4994904;28;20211;-80
2023/07/06 07:24:29;;;;;;;7.68;3.47;;;16.90;99.90;;;;;;5008877;28;20206;-79
2023/07/06 07:26:57;;;;;;;8.75;3.20;;;16.70;99.90;;;;;;5010857;28;20216;-79
2023/07/06 07:29:24;;;;;;;11.70;3.72;;;16.50;99.90;;;;;;5009277;28;20201;-79
2023/07/06 07:31:54;;;;;;;9.38;3.20;;;16.60;99.90;;;;;;5014757;28;20203;-79
2023/07/06 07:34:21;;;;;;;10.80;3.05;;;16.60;99.90;;;;;;5011343;28;20212;-79
2023/07/06 07:36:50;;;;;;;7.30;2.97;;;16.60;99.90;;;;;;5012336;28;20220;-78
2023/07/06 07:39:19;;;;;;;8.90;3.05;;;16.50;99.90;;;;;;4991849;28;20199;-78
2023/07/06 07:41:46;;;;;;;11.30;4.22;;;16.60;99.90;;;;;;5008776;28;20222;-78
2023/07/06 07:44:15;;;;;;;9.15;2.90;;;16.70;99.90;;;;;;5010454;28;20211;-78
2023/07/06 07:46:55;;;;;;;13.30;3.65;;;16.90;99.90;;;;;;4994053;28;20581;-79
2023/07/06 07:49:24;;;;;;;8.00;2.65;;;16.90;99.90;;;;;;5006226;28;20662;-79
2023/07/06 07:51:51;;;;;;;5.40;2.63;;;17.00;99.90;;;;;;5008549;28;20203;-79
2023/07/06 07:54:21;;;;;;;5.38;3.10;;;17.10;99.90;;;;;;5011805;28;20200;-78
2023/07/06 07:56:53;;;;;;;5.57;2.95;;;17.30;99.90;;;;;;5016930;28;20222;-79
2023/07/06 07:59:23;;;;;;;7.82;2.80;;;17.50;99.90;;;;;;4996667;28;20195;-79
2023/07/06 08:01:50;;;;;;;7.25;2.95;;;17.20;99.90;;;;;;4996855;28;20216;-79
2023/07/06 08:04:18;;;;;;;6.10;2.95;;;17.10;99.90;;;;;;5013430;28;20200;-80
2023/07/06 08:06:45;;;;;;;5.28;2.30;;;17.60;99.90;;;;;;5013156;28;20242;-78
2023/07/06 08:09:13;;;;;;;5.85;2.50;;;17.80;99.90;;;;;;5013085;28;20207;-79
2023/07/06 08:11:46;;;;;;;8.15;3.17;;;17.40;99.90;;;;;;5012524;28;20192;-78
2023/07/06 08:14:14;;;;;;;5.38;3.00;;;17.50;99.90;;;;;;4998289;28;20200;-80
2023/07/06 08:16:42;;;;;;;5.57;2.33;;;17.40;99.90;;;;;;4997834;28;20215;-79
2023/07/06 08:19:09;;;;;;;7.90;3.13;;;17.30;99.90;;;;;;5027252;28;20203;-79
2023/07/06 08:21:37;;;;;;;10.52;4.15;;;17.40;99.90;;;;;;5000764;28;20720;-79
2023/07/06 08:24:05;;;;;;;5.97;2.75;;;17.60;99.90;;;;;;5014408;28;20192;-79
2023/07/06 08:26:32;;;;;;;6.88;2.80;;;17.30;99.90;;;;;;5003886;28;20231;-79
2023/07/06 08:29:01;;;;;;;6.15;2.47;;;17.40;99.90;;;;;;5020478;28;20211;-80
2023/07/06 08:31:28;;;;;;;6.20;2.63;;;17.60;99.90;;;;;;4999390;28;20191;-83
2023/07/06 08:33:58;;;;;;;6.60;2.95;;;17.60;99.90;;;;;;5012521;28;20203;-79
2023/07/06 08:36:27;;;;;;;8.65;2.60;;;17.80;99.90;;;;;;5016018;28;20215;-79
2023/07/06 08:38:56;;;;;;;7.38;2.53;;;18.00;99.90;;;;;;5018578;28;20192;-78
2023/07/06 08:41:29;;;;;;;7.75;2.80;;;18.10;99.90;;;;;;4988514;28;20586;-78
2023/07/06 08:43:59;;;;;;;6.65;2.45;;;18.20;99.90;;;;;;4996484;28;20200;-78
2023/07/06 08:46:31;;;;;;;8.20;2.67;;;18.10;99.90;;;;;;5012578;28;20223;-78
2023/07/06 08:49:00;;;;;;;6.20;2.42;;;18.10;99.90;;;;;;5013130;28;20199;-79
2023/07/06 08:51:35;;;;;;;7.60;3.05;;;18.20;99.90;;;;;;5012922;28;20203;-78
2023/07/06 08:54:07;;;;;;;7.15;2.50;;;18.50;99.90;;;;;;5013039;28;20656;-79
2023/07/06 08:56:36;;;;;;;4.20;2.00;;;18.30;99.90;;;;;;5009033;28;20231;-79
2023/07/06 08:59:11;;;;;;;5.00;2.35;;;18.40;99.90;;;;;;5011945;28;20195;-78
2023/07/06 09:01:49;;;;;;;6.28;2.28;;;18.50;99.90;;;;;;5011584;28;20219;-78
2023/07/06 09:04:19;;;;;;;5.45;2.17;;;18.70;99.90;;;;;;5012208;28;20203;-79
2023/07/06 09:06:51;;;;;;;6.30;2.35;;;18.40;99.90;;;;;;5026883;28;20219;-79
2023/07/06 09:09:19;;;;;;;6.85;2.33;;;18.60;99.90;;;;;;4995815;28;20208;-78
2023/07/06 09:11:51;;;;;;;4.70;2.08;;;18.60;99.90;;;;;;5012048;28;20204;-80
2023/07/06 09:14:21;;;;;;;5.85;2.50;;;18.70;99.90;;;;;;5012546;28;20199;-79
2023/07/06 09:16:55;;;;;;;4.20;2.10;;;18.60;99.90;;;;;;4981012;28;20228;-79
2023/07/06 09:19:23;;;;;;;5.97;2.78;;;18.50;99.90;;;;;;4995677;28;20649;-81
2023/07/06 09:21:54;;;;;;;6.55;2.42;;;18.50;99.90;;;;;;5009928;28;20219;-80
2023/07/06 09:24:27;;;;;;;5.03;2.03;;;18.50;99.90;;;;;;5011138;28;20192;-78
2023/07/06 09:26:58;;;;;;;5.22;1.80;;;18.50;99.90;;;;;;5011301;28;20234;-78
2023/07/06 09:29:32;;;;;;;5.60;2.03;;;18.70;99.90;;;;;;5027938;28;20203;-79
2023/07/06 09:32:15;;;;;;;3.45;2.00;;;18.90;99.90;;;;;;5015116;28;20214;-78
2023/07/06 09:34:44;;;;;;;3.95;1.80;;;19.00;99.90;;;;;;4995051;28;20278;-78
2023/07/06 09:37:15;;;;;;;4.25;2.13;;;19.00;99.90;;;;;;4992826;28;20224;-77
2023/07/06 09:39:56;;;;;;;5.90;1.90;;;19.10;99.90;;;;;;5010659;28;20203;-78
2023/07/06 09:42:25;;;;;;;4.03;2.00;;;19.10;99.90;;;;;;5011287;28;20226;-78
2023/07/06 09:44:54;;;;;;;4.43;1.45;;;19.20;99.90;;;;;;5012629;28;20200;-78
2023/07/06 09:47:24;;;;;;;2.28;1.38;;;19.10;99.90;;;;;;5003580;28;20191;-79
2023/07/06 09:53:46;;;;;;;4.72;1.83;;;19.20;99.90;;;;;;5014353;28;20549;-80
2023/07/06 09:56:13;;;;;;;3.20;1.80;;;19.00;99.90;;;;;;4992211;28;20227;-78
2023/07/06 09:58:42;;;;;;;4.30;1.67;;;19.20;99.90;;;;;;4992181;28;20204;-78
2023/07/06 10:01:17;;;;;;;3.08;1.80;;;19.20;99.90;;;;;;4989656;28;20561;-78
2023/07/06 10:03:56;;;;;;;3.58;1.70;;;19.20;99.90;;;;;;5009789;28;20211;-78
2023/07/06 10:06:38;;;;;;;4.68;2.00;;;19.50;99.90;;;;;;5006429;28;20224;-78
2023/07/06 10:09:14;;;;;;;2.83;1.65;;;19.60;99.90;;;;;;4993330;28;20199;-77
2023/07/06 10:11:53;;;;;;;2.78;1.83;;;19.60;99.70;;;;;;4993364;28;20559;-79
2023/07/06 10:14:29;;;;;;;5.10;1.75;;;19.50;99.90;;;;;;5007707;28;20206;-80
2023/07/06 10:17:08;;;;;;;4.30;1.90;;;19.60;99.90;;;;;;5008594;28;20227;-78
2023/07/06 10:20:03;;;;;;;3.45;2.13;;;19.70;99.90;;;;;;5010943;28;20199;-78
2023/07/06 10:23:16;;;;;;;4.70;1.67;;;19.70;99.90;;;;;;5009826;28;20207;-78
2023/07/06 10:25:53;;;;;;;6.10;2.42;;;19.70;99.90;;;;;;5008491;28;20234;-78
2023/07/06 10:28:25;;;;;;;5.65;2.03;;;19.90;99.90;;;;;;5003301;28;20697;-78
2023/07/06 10:30:56;;;;;;;2.67;1.55;;;19.80;98.30;;;;;;5002157;28;20199;-78
2023/07/06 10:33:28;;;;;;;3.85;1.70;;;19.70;98.70;;;;;;5001000;28;20555;-78
2023/07/06 10:35:58;;;;;;;2.90;1.83;;;19.60;99.20;;;;;;5000718;28;20238;-78
2023/07/06 10:38:27;;;;;;;4.10;1.88;;;19.70;98.40;;;;;;5008575;28;20203;-78
2023/07/06 10:41:22;;;;;;;4.72;2.05;;;19.50;99.30;;;;;;5016279;28;20204;-81
2023/07/06 10:43:51;;;;;;;4.68;1.90;;;19.60;99.80;;;;;;5009728;28;20212;-81
2023/07/06 10:46:33;;;;;;;5.57;1.80;;;19.80;99.30;;;;;;4988388;28;20227;-78
2023/07/06 10:49:17;;;;;;;2.95;1.70;;;19.90;98.40;;;;;;4989674;28;20207;-78
2023/07/06 10:51:55;;;;;;;4.18;1.73;;;20.20;99.20;;;;;;5006025;28;20206;-78
2023/07/06 10:54:24;;;;;;;3.70;1.67;;;20.10;98.80;;;;;;4999968;28;20211;-78
2023/07/06 10:57:00;;;;;;;5.38;1.58;;;20.20;98.40;;;;;;5017249;28;20218;-80
2023/07/06 10:59:37;;;;;;;3.20;1.55;;;20.30;97.30;;;;;;5017116;28;20199;-80
2023/07/06 11:02:19;;;;;;;3.60;1.80;;;20.40;98.10;;;;;;5013675;28;20195;-78
2023/07/06 11:04:55;;;;;;;3.08;1.52;;;20.20;98.20;;;;;;5012814;28;20200;-78
2023/07/06 11:07:43;;;;;;;5.47;2.17;;;20.20;98.70;;;;;;5013861;28;20199;-78
2023/07/06 11:10:23;;;;;;;2.67;1.50;;;20.10;98.20;;;;;;5012216;28;20199;-79
2023/07/06 11:12:57;;;;;;;2.97;2.20;;;20.40;99.30;;;;;;5012040;28;20200;-78
2023/07/06 11:15:30;;;;;;;3.03;2.10;;;20.80;97.20;;;;;;5005101;28;20223;-79
2023/07/06 11:18:14;;;;;;;2.13;1.42;;;21.10;95.80;;;;;;5014179;28;20196;-81
2023/07/06 11:20:44;;;;;;;4.70;1.60;;;21.10;94.90;;;;;;5011803;28;20200;-79
2023/07/06 11:23:17;;;;;;;3.03;1.55;;;20.80;95.50;;;;;;4996107;28;20222;-79
2023/07/06 11:25:47;;;;;;;3.13;1.45;;;20.80;96.10;;;;;;5011150;28;20235;-79
2023/07/06 11:28:16;;;;;;;5.85;1.88;;;20.60;95.20;;;;;;5000456;28;20203;-80
2023/07/06 11:30:52;;;;;;;2.80;1.50;;;20.80;96.50;;;;;;4997690;28;20219;-81
2023/07/06 11:33:28;;;;;;;3.25;1.70;;;20.90;97.20;;;;;;5018324;28;20192;-81
2023/07/06 11:36:06;;;;;;;2.22;1.75;;;20.80;95.80;;;;;;5015667;28;20227;-81
2023/07/06 11:38:51;;;;;;;2.53;1.80;;;20.70;96.10;;;;;;4998184;28;20203;-81
2023/07/06 11:41:33;;;;;;;6.22;2.20;;;20.70;94.80;;;;;;4996607;28;20196;-80
2023/07/06 11:44:26;;;;;;;3.05;2.08;;;20.80;93.40;;;;;;5012699;28;20211;-80
2023/07/06 11:47:28;;;;;;;4.82;2.15;;;20.90;94.70;;;;;;5012534;28;20712;-81
2023/07/06 11:49:59;;;;;;;2.55;1.83;;;21.30;95.20;;;;;;5012516;28;20200;-80
2023/07/06 11:52:31;;;;;;;2.22;1.55;;;21.10;94.00;;;;;;5000086;28;20202;-81
2023/07/06 11:55:51;;;;;;;3.40;2.00;;;21.10;94.80;;;;;;4996863;28;20211;-80
2023/07/06 11:58:43;;;;;;;2.92;1.75;;;21.30;94.50;;;;;;5013858;28;20202;-81
2023/07/06 12:01:42;;;;;;;2.22;1.63;;;21.20;94.50;;;;;;5014625;28;20204;-81
2023/07/06 12:04:45;;;;;;;2.65;1.80;;;21.10;95.20;;;;;;4990976;28;20235;-83
2023/07/06 12:07:29;;;;;;;3.63;1.48;;;21.00;95.30;;;;;;4971729;28;20220;-80
2023/07/06 12:10:01;;;;;;;4.32;1.92;;;21.20;94.40;;;;;;4995100;28;20753;-80
2023/07/06 12:12:28;;;;;;;2.47;1.60;;;21.30;94.60;;;;;;4991739;28;20196;-80
2023/07/06 12:15:00;;;;;;;3.40;2.42;;;21.50;93.80;;;;;;4992631;28;20197;-81
2023/07/06 12:17:31;;;;;;;3.75;2.33;;;21.60;93.70;;;;;;4994061;28;20798;-82
2023/07/06 12:19:59;;;;;;;3.88;2.03;;;21.50;94.20;;;;;;4991685;28;20193;-81
2023/07/06 12:22:27;;;;;;;6.30;2.45;;;21.30;94.40;;;;;;4995693;28;20208;-80
2023/07/06 12:24:56;;;;;;;5.07;2.25;;;21.20;94.60;;;;;;4995717;28;20203;-81
2023/07/06 12:27:23;;;;;;;4.20;1.67;;;21.10;94.30;;;;;;5001023;28;20204;-81
2023/07/06 12:30:06;;;;;;;3.70;1.60;;;21.40;94.20;;;;;;4996277;28;20204;-81
2023/07/06 12:32:34;;;;;;;4.72;2.25;;;21.40;93.50;;;;;;5002066;28;20686;-80
2023/07/06 12:35:04;;;;;;;5.57;2.20;;;21.40;93.80;;;;;;4982266;28;20211;-80
2023/07/06 12:37:32;;;;;;;2.08;1.77;;;21.20;93.60;;;;;;4995364;28;20649;-80
2023/07/06 12:40:00;;;;;;;3.15;1.58;;;21.40;94.70;;;;;;4988294;28;20211;-81
2023/07/06 12:42:28;;;;;;;2.00;1.45;;;21.30;93.70;;;;;;5000245;28;20214;-81
2023/07/06 12:44:55;;;;;;;4.68;1.83;;;21.60;93.70;;;;;;4988638;28;20208;-80
2023/07/06 12:47:32;;;;;;;2.95;2.00;;;21.80;92.90;;;;;;4991814;28;20231;-82
2023/07/06 12:50:04;;;;;;;3.28;1.80;;;22.00;92.70;;;;;;5001769;28;20197;-80
2023/07/06 12:52:36;;;;;;;3.25;1.67;;;22.30;90.70;;;;;;4983594;28;20199;-81
2023/07/06 12:55:06;;;;;;;4.30;1.80;;;22.70;90.80;;;;;;4977404;28;20200;-85
2023/07/06 12:57:38;;;;;;;3.92;1.55;;;22.70;91.50;;;;;;4985724;28;20555;-81
2023/07/06 13:00:15;;;;;;;2.13;1.80;;;23.00;90.20;;;;;;4988141;28;20205;-86
2023/07/06 13:02:45;;;;;;;2.42;1.40;;;23.10;90.60;;;;;;4997685;28;20587;-81
2023/07/06 13:05:15;;;;;;;4.07;1.67;;;23.00;89.00;;;;;;5000190;28;20219;-86
2023/07/06 13:07:43;;;;;;;3.50;1.70;;;23.10;89.40;;;;;;4999247;28;20193;-81
2023/07/06 13:10:17;;;;;;;2.33;1.58;;;23.10;89.70;;;;;;5004091;28;20204;-81
2023/07/06 13:12:54;;;;;;;2.13;1.65;;;22.80;88.80;;;;;;5002599;28;20209;-81